Flight Track Log - Related Links

Times and Time Zones

All times are in EDT time to prevent confusion due to time zone crossing. See the UAL4846 flight status page for this flight to view local times or setup timezone preferences in your user account.

Time Position Orientation Groundspeed Altitude Reporting Facility
EDT Latitude Longitude Course Direction KTS MPH feet Rate Location/Type
Wed 12:16:00 PM 40.8643 -73.7297 63° Northeast  Level Estimated
Wed 12:17:00 PM 40.8887 -73.6668 63° Northeast  Level Estimated
Wed 12:18:00 PM 40.9131 -73.6038 63° Northeast  Level Estimated
Wed 12:19:00 PM 40.9375 -73.5408 63° Northeast  Level Estimated
Wed 12:20:00 PM 40.9618 -73.4778 63° Northeast  Level Estimated
Wed 12:21:00 PM 40.9860 -73.4147 63° Northeast  Level Estimated
Wed 12:22:00 PM 41.0103 -73.3516 63° Northeast  Level Estimated
Wed 12:23:00 PM 41.0345 -73.2884 63° Northeast  Level Estimated
Wed 12:24:00 PM 41.0587 -73.2252 63° Northeast  Level Estimated
Wed 12:25:00 PM 41.0828 -73.1619 63° Northeast  Level Estimated
Wed 12:26:00 PM 41.1069 -73.0986 63° Northeast  Level Estimated
Wed 12:27:00 PM 41.1310 -73.0352 63° Northeast  Level Estimated
Wed 12:28:00 PM 41.1550 -72.9718 63° Northeast  Level Estimated
Wed 12:29:00 PM 41.1790 -72.9083 63° Northeast  Level Estimated
Wed 12:30:00 PM 41.2030 -72.8448 63° Northeast  Level Estimated
Wed 12:31:00 PM 41.2269 -72.7813 63° Northeast  Level Estimated
Wed 12:32:00 PM 41.2508 -72.7177 63° Northeast  Level Estimated
Wed 12:33:00 PM 41.2747 -72.6540 63° Northeast  Level Estimated
Wed 12:34:00 PM 41.2985 -72.5903 64° Northeast  Level Estimated
Wed 12:35:00 PM 41.3223 -72.5266 64° Northeast  Level Estimated
Wed 12:36:00 PM 41.3460 -72.4628 64° Northeast  Level Estimated
Wed 12:37:00 PM 41.3697 -72.3990 64° Northeast  Level Estimated
Wed 12:38:00 PM 41.3934 -72.3351 64° Northeast  Level Estimated
Wed 12:39:00 PM 41.4171 -72.2712 64° Northeast  Level Estimated
Wed 12:40:00 PM 41.4407 -72.2072 64° Northeast  Level Estimated
Wed 12:41:00 PM 41.4642 -72.1432 64° Northeast  Level Estimated
Wed 12:42:00 PM 41.4878 -72.0791 64° Northeast  Level Estimated
Wed 12:43:00 PM 41.5113 -72.0150 64° Northeast  Level Estimated
Wed 12:44:00 PM 41.5348 -71.9509 64° Northeast  Level Estimated
Wed 12:45:00 PM 41.5582 -71.8867 64° Northeast  Level Estimated
Wed 12:46:00 PM 41.5816 -71.8224 64° Northeast  Level Estimated
Wed 12:47:00 PM 41.6049 -71.7581 64° Northeast  Level Estimated
Wed 12:48:00 PM 41.6283 -71.6938 64° Northeast  Level Estimated
Wed 12:49:00 PM 41.6516 -71.6294 64° Northeast  Level Estimated
Wed 12:50:00 PM 41.6748 -71.5650 64° Northeast  Level Estimated
Wed 12:51:00 PM 41.6981 -71.5005 64° Northeast  Level Estimated
Wed 12:52:00 PM 41.7212 -71.4360 64° Northeast  Level Estimated
Wed 12:53:00 PM 41.7240 -71.4282 64° Northeast  Level Estimated
Wed 12:54:00 PM 41.7240 -71.4282 226° Southwest  Level Estimated
Wed 12:55:00 PM 41.7240 -71.4282 226° Southwest  Level Estimated
Wed 12:56:00 PM 41.7240 -71.4282 226° Southwest  Level Estimated
Wed 12:57:00 PM 41.7240 -71.4282 226° Southwest  Level Estimated
Wed 12:58:00 PM 41.7240 -71.4282 226° Southwest  Level Estimated
Wed 12:59:00 PM 41.7240 -71.4282 226° Southwest  Level Estimated
Wed 01:00:00 PM 41.7240 -71.4282 226° Southwest  Level Estimated
Wed 01:01:00 PM 41.7240 -71.4282 226° Southwest  Level Estimated
Wed 01:02:00 PM 41.7240 -71.4282 226° Southwest  Level Estimated
Wed 01:03:00 PM 41.7240 -71.4282 226° Southwest  Level Estimated
Wed 01:04:00 PM 41.7240 -71.4282 226° Southwest  Level Estimated
Wed 01:05:00 PM 41.7240 -71.4282 226° Southwest  Level Estimated
Wed 01:06:00 PM 41.7240 -71.4282 226° Southwest  Level Estimated
Wed 01:07:00 PM 41.7240 -71.4282 226° Southwest  Level Estimated
Wed 01:08:00 PM 41.7240 -71.4282 226° Southwest  Level Estimated

Login

Don't have an account? Register now (free) for customized features, flight alerts, and more!